Time;durP1;ratioP1;P1;durP2;ratioP2;P2;SDS_P1;SDS_P2;PMS_P1;PMS_P2;Temp;Humidity;BMP_temperature;BMP_pressure;BME280_temperature;BME280_humidity;BME280_pressure;Samples;Min_cycle;Max_cycle;Signal;HPM_P1;HPM_P2
2022/12/16 00:01:27;;;;;;;1.53;0.57;;;23.20;82.20;;;;;;4937341;29;20185;-68
2022/12/16 00:03:56;;;;;;;2.97;0.73;;;23.50;85.60;;;;;;4920138;29;20555;-67
2022/12/16 00:06:26;;;;;;;1.67;0.60;;;23.90;76.50;;;;;;4937380;29;20184;-67
2022/12/16 00:08:55;;;;;;;3.77;0.73;;;23.70;83.60;;;;;;4937246;29;20180;-67
2022/12/16 00:11:23;;;;;;;2.30;0.73;;;23.50;75.00;;;;;;4937012;29;20219;-67
2022/12/16 00:13:51;;;;;;;3.13;1.03;;;22.50;75.50;;;;;;4937294;29;20180;-67
2022/12/16 00:16:20;;;;;;;1.37;0.60;;;21.70;81.80;;;;;;4937385;29;20185;-67
2022/12/16 00:18:48;;;;;;;3.67;1.13;;;21.90;89.60;;;;;;4920165;29;20649;-66
2022/12/16 00:21:19;;;;;;;2.63;0.70;;;22.60;87.80;;;;;;4936949;29;20176;-67
2022/12/16 00:23:47;;;;;;;4.57;0.90;;;23.50;83.80;;;;;;4937050;29;20208;-68
2022/12/16 00:26:15;;;;;;;4.77;0.77;;;24.20;77.40;;;;;;4935779;29;20177;-67
2022/12/16 00:28:43;;;;;;;2.90;0.90;;;24.30;81.20;;;;;;4937045;29;20175;-67
2022/12/16 00:31:11;;;;;;;4.23;0.87;;;23.90;74.40;;;;;;4937054;29;20243;-77
2022/12/16 00:33:39;;;;;;;2.73;0.60;;;23.10;73.20;;;;;;4936751;29;20203;-70
2022/12/16 00:36:08;;;;;;;1.70;0.70;;;22.40;74.40;;;;;;4936939;29;20183;-67
2022/12/16 00:38:35;;;;;;;3.40;0.83;;;21.70;83.90;;;;;;4936768;29;20228;-74
2022/12/16 00:41:03;;;;;;;3.60;0.90;;;21.60;81.50;;;;;;4936893;29;20192;-67
2022/12/16 00:43:31;;;;;;;4.90;0.90;;;22.40;83.60;;;;;;4936390;29;20315;-77
2022/12/16 00:45:59;;;;;;;3.03;0.67;;;22.50;79.70;;;;;;4936700;29;20714;-68
2022/12/16 00:48:27;;;;;;;2.10;0.63;;;22.70;78.70;;;;;;4936548;29;20180;-69
2022/12/16 00:50:59;;;;;;;2.13;0.60;;;22.40;76.10;;;;;;4935315;29;20203;-67
2022/12/16 00:53:27;;;;;;;3.73;0.53;;;22.30;80.20;;;;;;4936679;29;20538;-67
2022/12/16 00:56:06;;;;;;;3.40;0.80;;;22.50;84.00;;;;;;4936934;29;20207;-67
2022/12/16 00:58:34;;;;;;;1.70;0.60;;;23.00;80.60;;;;;;4936405;29;20684;-67
2022/12/16 01:01:03;;;;;;;4.10;0.80;;;23.50;90.50;;;;;;4936300;29;20177;-66
2022/12/16 01:03:31;;;;;;;1.83;0.77;;;24.60;84.50;;;;;;4936621;29;20219;-67
2022/12/16 01:05:59;;;;;;;4.43;1.10;;;25.20;64.40;;;;;;4936545;29;20177;-67
2022/12/16 01:08:27;;;;;;;2.20;0.60;;;24.30;63.40;;;;;;4936277;29;20621;-67
2022/12/16 01:10:56;;;;;;;1.50;0.60;;;23.60;71.90;;;;;;4936388;29;20267;-75
2022/12/16 01:13:26;;;;;;;3.30;0.80;;;23.30;74.20;;;;;;4936210;29;20187;-78
2022/12/16 01:15:54;;;;;;;2.10;0.80;;;23.00;75.20;;;;;;4936208;29;20642;-67
2022/12/16 01:18:22;;;;;;;2.07;0.73;;;23.00;80.80;;;;;;4936114;29;20214;-69
2022/12/16 01:20:50;;;;;;;2.97;0.83;;;22.80;83.00;;;;;;4936330;29;20581;-66
2022/12/16 01:23:18;;;;;;;2.90;0.80;;;22.90;78.60;;;;;;4935973;29;20223;-75
2022/12/16 01:25:48;;;;;;;2.57;0.80;;;23.10;78.90;;;;;;4936300;29;20173;-68
2022/12/16 01:28:16;;;;;;;3.17;0.73;;;23.50;89.50;;;;;;4935979;29;20181;-67
2022/12/16 01:30:43;;;;;;;2.60;0.80;;;24.70;77.50;;;;;;4935976;29;20176;-67
2022/12/16 01:33:12;;;;;;;1.70;0.63;;;24.80;70.80;;;;;;4936085;29;20244;-67
2022/12/16 01:35:39;;;;;;;2.93;0.87;;;24.90;67.70;;;;;;4935940;29;20657;-77
2022/12/16 01:38:07;;;;;;;5.33;0.90;;;24.40;74.30;;;;;;4936164;29;20188;-67
2022/12/16 01:40:35;;;;;;;2.10;0.50;;;24.10;80.80;;;;;;4935781;29;20190;-67
2022/12/16 01:43:09;;;;;;;2.27;0.80;;;24.30;78.20;;;;;;4935880;29;20228;-67
2022/12/16 01:45:37;;;;;;;4.50;1.00;;;24.10;72.70;;;;;;4936052;29;20195;-77
2022/12/16 01:48:30;;;;;;;1.40;0.67;;;24.10;73.10;;;;;;4936058;29;20192;-66
2022/12/16 01:51:05;;;;;;;1.60;0.77;;;23.70;70.70;;;;;;4935806;29;20191;-75
2022/12/16 01:53:33;;;;;;;4.20;0.90;;;23.30;73.90;;;;;;4935736;29;20219;-67
2022/12/16 01:56:02;;;;;;;2.23;0.73;;;23.60;74.60;;;;;;4935883;29;20196;-66
2022/12/16 01:58:34;;;;;;;3.03;0.77;;;23.80;76.30;;;;;;4935908;29;20263;-67
2022/12/16 02:01:02;;;;;;;4.93;0.97;;;23.90;75.10;;;;;;4935637;29;20184;-67
2022/12/16 02:03:34;;;;;;;4.40;1.00;;;23.80;83.00;;;;;;4902815;29;20220;-66
2022/12/16 02:06:05;;;;;;;5.97;1.00;;;24.20;75.60;;;;;;4936034;29;20184;-68
2022/12/16 02:08:33;;;;;;;4.43;1.00;;;24.80;73.30;;;;;;4918691;29;20205;-66
2022/12/16 02:11:52;;;;;;;3.50;0.97;;;25.20;76.90;;;;;;4935633;29;20185;-77
2022/12/16 02:14:34;;;;;;;2.40;1.03;;;25.00;65.30;;;;;;4877211;29;20194;-67
2022/12/16 02:17:07;;;;;;;3.60;0.80;;;24.60;63.20;;;;;;4930128;29;20283;-67
2022/12/16 02:19:56;;;;;;;3.93;0.80;;;24.20;77.00;;;;;;4935631;29;20181;-68
2022/12/16 02:22:51;;;;;;;3.20;0.80;;;24.50;72.00;;;;;;4938484;29;20209;-66
2022/12/16 02:25:58;;;;;;;4.03;0.97;;;24.90;73.40;;;;;;4939778;29;20188;-77
2022/12/16 02:28:54;;;;;;;3.77;1.00;;;24.60;72.70;;;;;;4939297;29;20192;-67
2022/12/16 02:32:08;;;;;;;7.00;1.07;;;24.30;70.90;;;;;;4913977;29;20211;-70
2022/12/16 02:34:47;;;;;;;9.73;1.37;;;23.50;76.60;;;;;;4879540;29;20190;-73
2022/12/16 02:37:36;;;;;;;5.53;1.33;;;24.30;90.00;;;;;;4935987;29;20216;-73
2022/12/16 02:40:14;;;;;;;4.43;1.13;;;25.20;81.20;;;;;;4937224;29;20181;-69
2022/12/16 02:42:47;;;;;;;8.10;1.30;;;24.20;76.50;;;;;;4939185;29;20266;-69
2022/12/16 02:45:26;;;;;;;5.07;1.10;;;23.70;73.20;;;;;;4938510;29;20179;-75
2022/12/16 02:47:53;;;;;;;3.23;1.23;;;24.30;83.30;;;;;;4935837;29;20188;-69
2022/12/16 02:50:23;;;;;;;5.80;1.40;;;24.80;83.80;;;;;;4937112;29;20356;-69
2022/12/16 02:52:53;;;;;;;3.67;1.20;;;24.60;71.80;;;;;;4937201;29;20238;-69
2022/12/16 02:55:28;;;;;;;6.73;1.57;;;24.20;92.50;;;;;;4920663;29;20236;-69
2022/12/16 02:58:18;;;;;;;3.33;1.00;;;23.70;75.70;;;;;;4937378;29;20278;-69
2022/12/16 03:01:24;;;;;;;3.20;1.30;;;24.00;90.30;;;;;;4929631;29;20576;-69
2022/12/16 03:04:09;;;;;;;6.00;1.23;;;24.70;87.50;;;;;;4937139;29;20236;-70
2022/12/16 03:06:40;;;;;;;7.80;1.17;;;25.00;82.80;;;;;;4937161;29;20543;-69
2022/12/16 03:09:13;;;;;;;5.77;1.13;;;25.10;85.10;;;;;;4936959;29;20187;-69
2022/12/16 03:11:43;;;;;;;5.03;1.10;;;25.40;82.80;;;;;;4937298;29;20181;-78
2022/12/16 03:14:15;;;;;;;4.80;1.17;;;25.50;82.70;;;;;;4937220;29;20193;-70
2022/12/16 03:16:49;;;;;;;4.53;1.20;;;25.70;81.80;;;;;;4936726;29;20263;-70
2022/12/16 03:19:18;;;;;;;3.73;1.30;;;25.90;87.40;;;;;;4936805;29;20226;-69
2022/12/16 03:22:11;;;;;;;5.83;1.23;;;26.30;73.60;;;;;;4920303;29;20287;-77
2022/12/16 03:24:39;;;;;;;5.17;1.30;;;26.30;75.00;;;;;;4936643;29;20521;-70
2022/12/16 03:27:20;;;;;;;7.80;1.30;;;25.50;78.10;;;;;;4936973;29;20224;-70
2022/12/16 03:29:58;;;;;;;3.60;1.10;;;25.00;78.70;;;;;;4936257;29;20197;-69
2022/12/16 03:32:34;;;;;;;6.90;1.30;;;24.50;81.10;;;;;;4935031;29;20232;-70
2022/12/16 03:35:46;;;;;;;4.00;1.20;;;24.10;81.60;;;;;;4936695;29;20223;-70
2022/12/16 03:38:15;;;;;;;4.30;1.17;;;23.90;83.80;;;;;;4877531;29;20605;-70
2022/12/16 03:40:44;;;;;;;5.90;1.67;;;23.80;86.90;;;;;;4877459;29;20198;-69
2022/12/16 03:43:16;;;;;;;4.40;1.27;;;23.70;90.30;;;;;;4907750;29;20836;-70
2022/12/16 03:45:45;;;;;;;7.40;1.50;;;23.90;88.20;;;;;;4936717;29;20211;-69
2022/12/16 03:48:16;;;;;;;8.67;1.30;;;24.40;88.90;;;;;;4935554;29;20201;-70
2022/12/16 03:50:43;;;;;;;4.63;1.40;;;24.60;89.50;;;;;;4935007;29;20266;-69
2022/12/16 03:53:11;;;;;;;7.00;1.60;;;24.90;78.80;;;;;;4936089;29;20232;-73
2022/12/16 03:55:40;;;;;;;4.43;1.43;;;24.30;87.70;;;;;;4936107;29;20189;-77
2022/12/16 03:58:07;;;;;;;5.60;1.50;;;23.80;90.80;;;;;;4935097;29;20189;-69
2022/12/16 04:00:35;;;;;;;3.73;1.33;;;23.50;90.00;;;;;;4936019;29;20192;-69
2022/12/16 04:03:03;;;;;;;3.87;1.30;;;23.50;91.50;;;;;;4935774;29;20347;-69
2022/12/16 04:05:31;;;;;;;10.67;1.57;;;23.60;92.20;;;;;;4935741;29;20199;-68
2022/12/16 04:07:59;;;;;;;8.90;1.67;;;23.60;89.70;;;;;;4936099;29;20200;-73
2022/12/16 04:24:19;;;;;;;7.13;1.67;;;24.90;93.90;;;;;;4935446;29;20196;-75
2022/12/16 04:29:33;;;;;;;8.07;1.27;;;25.80;92.40;;;;;;4936620;29;20195;-68
2022/12/16 04:32:01;;;;;;;6.10;1.70;;;25.60;88.30;;;;;;4935310;29;20521;-68
2022/12/16 04:34:29;;;;;;;5.03;1.30;;;25.20;90.10;;;;;;4935554;29;20565;-68
